createdAt,value
2024-03-06T00:03:33.694Z,25.83
2024-03-06T00:07:34.889Z,27.07
2024-03-06T00:11:38.780Z,27.13
2024-03-06T00:15:40.034Z,26.13
2024-03-06T00:19:41.210Z,24.17
2024-03-06T00:23:42.542Z,20.90
2024-03-06T00:27:43.836Z,25.37
2024-03-06T00:31:46.231Z,20.00
2024-03-06T00:35:47.786Z,17.07
2024-03-06T00:39:48.801Z,17.27
2024-03-06T00:43:50.062Z,17.43
2024-03-06T00:47:51.252Z,18.63
2024-03-06T00:51:52.530Z,20.47
2024-03-06T00:55:54.303Z,26.57
2024-03-06T00:59:55.446Z,23.70
2024-03-06T01:03:56.725Z,23.40
2024-03-06T01:07:59.681Z,19.60
2024-03-06T01:12:00.906Z,18.20
2024-03-06T01:16:01.917Z,18.10
2024-03-06T01:20:05.075Z,20.57
2024-03-06T01:24:06.227Z,19.03
2024-03-06T01:28:07.397Z,18.93
2024-03-06T01:32:08.469Z,23.40
2024-03-06T01:36:09.599Z,22.03
2024-03-06T01:40:12.748Z,21.47
2024-03-06T01:44:18.958Z,22.53
2024-03-06T01:48:27.190Z,21.17
2024-03-06T01:52:28.765Z,29.43
2024-03-06T01:56:31.066Z,22.97
2024-03-06T02:00:34.416Z,23.47
2024-03-06T02:04:35.898Z,21.67
2024-03-06T02:08:37.140Z,24.60
2024-03-06T02:12:38.932Z,26.57
2024-03-06T02:16:40.115Z,23.53
2024-03-06T02:20:41.877Z,25.50
2024-03-06T02:24:45.845Z,22.90
2024-03-06T02:28:52.379Z,25.07
2024-03-06T02:32:53.592Z,21.33
2024-03-06T02:36:54.614Z,24.47
2024-03-06T02:40:55.841Z,27.20
2024-03-06T02:44:57.052Z,27.07
2024-03-06T02:48:58.120Z,26.43
2024-03-06T02:52:59.306Z,24.03
2024-03-06T02:57:00.467Z,24.53
2024-03-06T03:01:01.628Z,25.93
2024-03-06T03:05:03.675Z,24.40
2024-03-06T03:09:04.748Z,26.90
2024-03-06T03:13:05.829Z,25.67
2024-03-06T03:17:07.307Z,24.03
2024-03-06T03:21:09.810Z,24.77
2024-03-06T03:25:14.533Z,21.07
2024-03-06T03:29:15.706Z,23.07
2024-03-06T03:33:17.448Z,22.27
2024-03-06T03:37:18.526Z,21.57
2024-03-06T03:41:19.726Z,21.63
2024-03-06T03:45:20.871Z,25.67
2024-03-06T03:49:22.048Z,24.90
2024-03-06T03:53:23.570Z,23.60
2024-03-06T03:57:24.614Z,21.23
2024-03-06T04:01:26.481Z,21.37
2024-03-06T04:05:27.499Z,21.80
2024-03-06T04:09:28.772Z,21.20
2024-03-06T04:13:29.915Z,23.27
2024-03-06T04:17:31.197Z,23.17
2024-03-06T04:21:32.246Z,26.13
2024-03-06T04:25:33.500Z,21.67
2024-03-06T04:29:34.677Z,22.93
2024-03-06T04:33:35.978Z,26.23
2024-03-06T04:37:37.016Z,20.73
2024-03-06T04:41:38.152Z,21.57
2024-03-06T04:45:39.254Z,24.73
2024-03-06T04:49:40.309Z,26.30
2024-03-06T04:53:42.657Z,26.50
2024-03-06T04:57:44.381Z,26.07
2024-03-06T05:01:45.774Z,24.20
2024-03-06T06:02:06.528Z,23.50
2024-03-06T06:06:09.029Z,22.63
2024-03-06T06:10:10.557Z,26.40
2024-03-06T06:14:11.700Z,30.90
2024-03-06T06:18:12.945Z,29.13
2024-03-06T06:22:13.980Z,25.20
2024-03-06T06:26:15.248Z,22.50
2024-03-06T06:30:17.344Z,21.67
2024-03-06T06:34:19.054Z,23.57
2024-03-06T06:38:20.719Z,22.00
2024-03-06T06:42:21.841Z,25.37
2024-03-06T06:46:22.979Z,24.87
2024-03-06T06:50:26.191Z,25.73
2024-03-06T06:54:27.306Z,27.63
2024-03-06T06:58:28.419Z,24.83
2024-03-06T07:02:30.406Z,26.57
2024-03-06T07:06:31.401Z,25.13
2024-03-06T07:10:32.546Z,30.73
2024-03-06T07:14:34.008Z,26.23
2024-03-06T07:18:35.470Z,25.33
2024-03-06T07:22:36.552Z,29.53
2024-03-06T07:26:37.605Z,27.50
2024-03-06T07:30:38.763Z,27.17
2024-03-06T07:34:39.789Z,28.93
2024-03-06T07:38:42.221Z,26.80
2024-03-06T07:42:43.648Z,27.20
2024-03-06T07:46:44.957Z,33.27
2024-03-06T07:50:46.218Z,33.93
2024-03-06T07:54:47.678Z,33.67
2024-03-06T07:58:48.878Z,30.07
2024-03-06T08:02:50.488Z,30.63
2024-03-06T08:06:51.666Z,27.93
2024-03-06T08:10:52.892Z,29.43
2024-03-06T08:14:54.964Z,26.97
2024-03-06T08:18:56.629Z,30.17
2024-03-06T08:22:57.711Z,32.03
2024-03-06T08:26:59.090Z,28.67
2024-03-06T08:31:00.687Z,25.50
2024-03-06T08:35:06.515Z,25.70
2024-03-06T08:39:07.624Z,25.20
2024-03-06T08:43:09.710Z,25.57
2024-03-06T08:47:12.327Z,25.20
2024-03-06T08:51:14.703Z,25.07
2024-03-06T08:55:15.759Z,23.33
2024-03-06T08:59:16.847Z,22.03
2024-03-06T09:03:18.464Z,23.43
2024-03-06T09:07:20.395Z,23.80
2024-03-06T09:11:23.020Z,24.20
2024-03-06T09:15:24.766Z,27.20
2024-03-06T09:19:26.025Z,28.30
2024-03-06T09:23:27.243Z,32.13
2024-03-06T09:27:28.252Z,37.97
2024-03-06T09:31:29.405Z,32.80
2024-03-06T09:35:30.578Z,40.10
2024-03-06T09:39:31.707Z,41.93
2024-03-06T09:43:32.964Z,38.23
2024-03-06T09:47:36.559Z,35.27
2024-03-06T09:51:41.638Z,39.77
2024-03-06T09:55:43.356Z,42.93
2024-03-06T09:59:44.950Z,43.73
2024-03-06T10:03:46.771Z,45.97
2024-03-06T10:07:49.639Z,44.13
2024-03-06T10:11:53.387Z,48.27
2024-03-06T10:16:03.111Z,51.53
2024-03-06T10:20:24.475Z,55.03
2024-03-06T10:24:28.556Z,44.90
2024-03-06T10:28:29.713Z,43.07
2024-03-06T10:32:31.416Z,35.97
2024-03-06T10:36:33.100Z,35.30
2024-03-06T10:40:36.757Z,31.87
2024-03-06T10:44:41.800Z,29.77
2024-03-06T10:48:44.454Z,26.10
2024-03-06T10:52:47.827Z,23.10
2024-03-06T10:56:48.997Z,28.87
2024-03-06T11:00:52.808Z,20.90
2024-03-06T11:04:54.317Z,20.53
2024-03-06T11:08:55.855Z,19.93
2024-03-06T11:12:57.233Z,25.20
2024-03-06T11:17:02.600Z,20.20
2024-03-06T11:21:07.453Z,19.53
2024-03-06T11:25:09.299Z,20.27
2024-03-06T11:29:10.588Z,18.73
2024-03-06T11:33:17.094Z,18.97
2024-03-06T11:37:21.320Z,22.73
2024-03-06T11:41:25.627Z,24.57
2024-03-06T11:45:26.606Z,21.17
2024-03-06T11:49:29.324Z,26.57
2024-03-06T11:53:31.285Z,23.70
2024-03-06T11:57:34.294Z,23.27
2024-03-06T12:01:36.988Z,16.37
2024-03-06T12:05:38.206Z,21.83
2024-03-06T12:09:44.075Z,21.27
2024-03-06T12:13:45.847Z,22.90
2024-03-06T12:17:52.501Z,24.37
2024-03-06T12:21:54.319Z,22.13
2024-03-06T12:26:08.657Z,22.57
2024-03-06T12:30:12.726Z,25.70
2024-03-06T12:34:18.146Z,26.93
2024-03-06T12:38:19.299Z,25.80
2024-03-06T12:42:20.268Z,21.57
2024-03-06T12:46:21.566Z,19.93
2024-03-06T12:50:22.783Z,20.67
2024-03-06T12:54:24.010Z,19.47
2024-03-06T12:58:24.938Z,21.27
2024-03-06T13:02:26.617Z,23.77
2024-03-06T13:06:29.548Z,18.83
2024-03-06T13:10:30.667Z,21.13
2024-03-06T13:14:31.892Z,26.37
2024-03-06T13:18:33.111Z,21.83
2024-03-06T13:22:34.184Z,27.73
2024-03-06T13:26:37.104Z,23.40
2024-03-06T13:30:39.375Z,20.90
2024-03-06T13:34:40.402Z,20.73
2024-03-06T13:38:41.605Z,20.30
2024-03-06T13:42:43.692Z,20.20
2024-03-06T13:46:45.633Z,19.73
2024-03-06T13:50:47.313Z,22.23
2024-03-06T13:54:48.801Z,21.47
2024-03-06T13:58:49.917Z,23.53
2024-03-06T14:02:50.949Z,23.43
2024-03-06T14:06:51.950Z,29.03
2024-03-06T14:10:53.031Z,27.20
2024-03-06T14:14:54.232Z,22.10
2024-03-06T14:18:56.308Z,22.57
2024-03-06T14:22:57.531Z,23.07
2024-03-06T14:26:58.852Z,31.83
2024-03-06T14:31:00.806Z,24.53
2024-03-06T14:35:02.327Z,21.30
2024-03-06T14:39:03.875Z,23.33
2024-03-06T14:43:06.914Z,19.23
2024-03-06T14:47:07.939Z,19.57
2024-03-06T14:51:09.355Z,22.43
2024-03-06T14:55:10.598Z,22.53
2024-03-06T14:59:11.788Z,20.10
2024-03-06T15:03:12.782Z,18.70
2024-03-06T15:07:13.916Z,23.40
2024-03-06T15:11:15.601Z,21.30
2024-03-06T15:15:16.806Z,21.90
2024-03-06T15:19:17.972Z,21.70
2024-03-06T15:23:19.002Z,24.40
2024-03-06T15:27:20.111Z,22.33
2024-03-06T15:31:21.587Z,22.57
2024-03-06T15:35:23.673Z,22.97
2024-03-06T15:39:24.891Z,22.40
2024-03-06T15:43:26.739Z,25.53
2024-03-06T15:47:27.804Z,21.63
2024-03-06T15:51:28.936Z,20.70
2024-03-06T15:55:31.289Z,29.07
2024-03-06T15:59:38.079Z,20.63
2024-03-06T16:03:39.501Z,22.20
2024-03-06T16:07:47.364Z,26.60
2024-03-06T16:11:43.820Z,26.57
2024-03-06T16:15:46.425Z,24.93
2024-03-06T16:19:47.569Z,25.77
2024-03-06T16:23:49.384Z,24.33
2024-03-06T16:27:50.592Z,25.43
2024-03-06T16:31:51.749Z,23.07
2024-03-06T16:35:53.017Z,30.43
2024-03-06T16:39:54.269Z,28.83
2024-03-06T16:43:55.685Z,24.97
2024-03-06T16:47:58.945Z,26.50
2024-03-06T16:52:00.184Z,26.50
2024-03-06T16:56:01.357Z,32.47
2024-03-06T17:00:05.431Z,29.47
2024-03-06T17:04:07.765Z,29.23
2024-03-06T17:08:09.139Z,30.53
2024-03-06T17:12:10.318Z,30.10
2024-03-06T17:16:11.598Z,34.43
2024-03-06T17:20:13.735Z,35.37
2024-03-06T17:24:14.936Z,34.90
2024-03-06T17:28:17.737Z,37.63
2024-03-06T17:32:23.862Z,35.67
2024-03-06T17:36:24.939Z,35.98
2024-03-06T17:40:26.262Z,38.70
2024-03-06T17:44:28.614Z,41.97
2024-03-06T17:48:30.634Z,46.10
2024-03-06T17:52:31.742Z,41.00
2024-03-06T17:56:32.927Z,44.80
2024-03-06T18:00:37.125Z,40.43
2024-03-06T18:04:38.334Z,39.10
2024-03-06T18:08:39.468Z,48.40
2024-03-06T18:12:40.713Z,52.83
2024-03-06T18:16:47.572Z,47.27
2024-03-06T18:20:48.759Z,43.70
2024-03-06T18:24:49.784Z,49.33
2024-03-06T18:28:51.173Z,47.37
2024-03-06T18:32:52.426Z,54.87
2024-03-06T18:36:53.460Z,41.83
2024-03-06T18:40:54.639Z,46.63
2024-03-06T18:44:55.732Z,51.07
2024-03-06T18:48:57.065Z,48.87
2024-03-06T18:52:58.226Z,44.17
2024-03-06T18:56:59.682Z,50.60
2024-03-06T19:01:00.795Z,48.87
2024-03-06T19:05:02.046Z,47.57
2024-03-06T19:09:05.180Z,50.53
2024-03-06T19:13:07.124Z,49.33
2024-03-06T19:17:08.380Z,49.67
2024-03-06T19:21:09.528Z,51.27
2024-03-06T19:25:10.685Z,50.37
2024-03-06T19:29:11.811Z,55.83
2024-03-06T19:33:13.298Z,53.03
2024-03-06T19:37:14.715Z,50.93
2024-03-06T19:41:16.175Z,53.77
2024-03-06T19:45:17.873Z,53.77
2024-03-06T19:49:20.107Z,62.37
2024-03-06T19:53:21.549Z,54.13
2024-03-06T19:57:22.635Z,56.10
2024-03-06T20:01:23.709Z,60.10
2024-03-06T20:05:24.978Z,64.20
2024-03-06T20:09:27.916Z,60.00
2024-03-06T20:13:29.026Z,56.30
2024-03-06T20:17:30.157Z,64.47
2024-03-06T20:21:31.706Z,63.27
2024-03-06T20:25:40.324Z,62.50
2024-03-06T20:29:41.380Z,64.77
2024-03-06T20:33:42.740Z,69.37
2024-03-06T20:37:43.770Z,67.43
2024-03-06T20:42:09.573Z,65.70
2024-03-06T20:46:10.726Z,70.50
2024-03-06T20:50:12.536Z,68.83
2024-03-06T20:54:13.523Z,60.80
2024-03-06T20:58:14.541Z,64.07
2024-03-06T21:02:15.636Z,62.87
2024-03-06T21:06:16.727Z,73.40
2024-03-06T21:10:17.951Z,61.03
2024-03-06T21:14:19.034Z,71.50
2024-03-06T21:18:53.354Z,71.03
2024-03-06T21:22:54.594Z,80.40
2024-03-06T21:26:55.926Z,72.43
2024-03-06T21:30:57.389Z,77.27
2024-03-06T21:34:59.020Z,73.60
2024-03-06T21:39:00.259Z,72.83
2024-03-06T21:43:03.493Z,68.73
2024-03-06T21:47:04.628Z,71.60
2024-03-06T21:51:05.680Z,75.97
2024-03-06T21:55:07.292Z,94.73
2024-03-06T21:59:08.490Z,86.13
2024-03-06T22:03:09.934Z,80.00
2024-03-06T22:07:11.077Z,66.13
2024-03-06T22:11:12.279Z,77.40
2024-03-06T22:15:13.365Z,72.40
2024-03-06T22:19:15.105Z,76.53
2024-03-06T22:23:16.218Z,78.57
2024-03-06T22:27:17.286Z,81.27
2024-03-06T22:31:18.849Z,83.90
2024-03-06T22:35:19.900Z,80.47
2024-03-06T22:39:21.868Z,84.83
2024-03-06T22:43:22.928Z,80.00
2024-03-06T22:47:24.049Z,75.37
2024-03-06T22:51:25.202Z,72.37
2024-03-06T22:55:26.917Z,82.63
2024-03-06T22:59:28.000Z,74.77
2024-03-06T23:03:29.405Z,78.17
2024-03-06T23:07:30.545Z,72.63
2024-03-06T23:11:32.730Z,80.07
2024-03-06T23:15:33.948Z,65.27
2024-03-06T23:19:35.015Z,71.67
2024-03-06T23:23:36.039Z,69.57
2024-03-06T23:27:39.650Z,76.83
2024-03-06T23:31:40.997Z,78.50
2024-03-06T23:35:42.029Z,76.67
2024-03-06T23:39:43.181Z,78.47
2024-03-06T23:43:44.166Z,75.83
2024-03-06T23:47:47.728Z,76.23
2024-03-06T23:51:49.397Z,84.37
2024-03-06T23:55:50.558Z,71.43
2024-03-06T23:59:51.618Z,75.70
